Time;durP1;ratioP1;P1;durP2;ratioP2;P2;SDS_P1;SDS_P2;PMS_P1;PMS_P2;Temp;Humidity;BMP_temperature;BMP_pressure;BME280_temperature;BME280_humidity;BME280_pressure;Samples;Min_cycle;Max_cycle;Signal;HPM_P1;HPM_P2
2023/09/25 00:01:11;;;;;;;4.93;2.55;;;15.90;95.90;;;;;;4232892;28;20055;-55
2023/09/25 00:03:13;;;;;;;5.63;2.50;;;15.90;95.90;;;;;;4233404;28;20048;-50
2023/09/25 00:05:17;;;;;;;4.97;2.58;;;15.90;95.80;;;;;;4233114;28;20048;-53
2023/09/25 00:07:20;;;;;;;5.53;2.80;;;15.80;95.90;;;;;;4233041;28;20455;-49
2023/09/25 00:09:23;;;;;;;6.47;3.20;;;15.80;96.00;;;;;;4232921;28;20082;-49
2023/09/25 00:11:25;;;;;;;6.45;2.58;;;15.80;96.00;;;;;;4214867;28;20044;-50
2023/09/25 00:13:28;;;;;;;5.20;2.90;;;15.80;96.30;;;;;;4232793;28;20051;-52
2023/09/25 00:15:30;;;;;;;5.03;2.60;;;15.70;96.00;;;;;;4232660;28;20047;-53
2023/09/25 00:17:34;;;;;;;4.47;2.50;;;15.70;96.40;;;;;;4232559;28;20047;-52
2023/09/25 00:19:37;;;;;;;6.60;2.85;;;15.70;96.40;;;;;;4214092;28;20050;-53
2023/09/25 00:21:40;;;;;;;5.05;2.83;;;15.60;96.40;;;;;;4232744;28;20094;-53
2023/09/25 00:23:42;;;;;;;7.15;2.72;;;15.60;96.40;;;;;;4232407;28;20044;-53
2023/09/25 00:25:45;;;;;;;6.72;3.30;;;15.70;96.40;;;;;;4232804;28;20131;-53
2023/09/25 00:27:47;;;;;;;9.10;3.38;;;15.70;96.40;;;;;;4232931;28;20117;-52
2023/09/25 00:29:50;;;;;;;7.38;3.00;;;15.70;96.60;;;;;;4232767;28;20047;-50
2023/09/25 00:31:52;;;;;;;4.90;2.85;;;15.60;96.60;;;;;;4233070;28;20043;-51
2023/09/25 00:33:56;;;;;;;5.22;2.70;;;15.60;96.60;;;;;;4232995;28;20074;-51
2023/09/25 00:35:58;;;;;;;7.20;3.13;;;15.60;96.40;;;;;;4232434;28;20043;-51
2023/09/25 00:38:02;;;;;;;3.90;2.30;;;15.50;96.50;;;;;;4232596;28;20048;-51
2023/09/25 00:40:24;;;;;;;4.63;2.10;;;15.50;96.70;;;;;;4232077;28;20439;-53
2023/09/25 00:42:27;;;;;;;4.10;2.83;;;15.50;96.80;;;;;;4232141;28;20474;-56
2023/09/25 00:44:29;;;;;;;3.63;2.45;;;15.60;96.70;;;;;;4232290;28;20073;-53
2023/09/25 00:46:32;;;;;;;4.30;2.85;;;15.60;96.60;;;;;;4231998;28;20075;-53
2023/09/25 00:48:34;;;;;;;7.90;3.20;;;15.60;96.70;;;;;;4232066;28;20051;-50
2023/09/25 00:50:38;;;;;;;6.43;3.03;;;15.50;96.70;;;;;;4231961;28;20493;-52
2023/09/25 00:52:42;;;;;;;4.97;3.03;;;15.50;96.60;;;;;;4232118;28;20054;-53
2023/09/25 00:54:44;;;;;;;4.45;2.53;;;15.50;96.50;;;;;;4232515;28;20067;-50
2023/09/25 00:56:48;;;;;;;5.90;2.95;;;15.60;96.70;;;;;;4232794;28;20085;-51
2023/09/25 00:58:51;;;;;;;6.38;2.63;;;15.50;96.80;;;;;;4232061;28;20127;-53
2023/09/25 01:00:54;;;;;;;5.70;2.90;;;15.60;96.60;;;;;;4231888;28;20488;-54
2023/09/25 01:02:56;;;;;;;4.28;2.70;;;15.60;96.70;;;;;;4231519;28;20502;-53
2023/09/25 01:05:00;;;;;;;5.80;3.30;;;15.50;96.90;;;;;;4231621;28;20047;-53
2023/09/25 01:07:03;;;;;;;5.28;2.90;;;15.50;96.90;;;;;;4231626;28;20097;-52
2023/09/25 01:09:08;;;;;;;4.22;2.65;;;15.50;97.10;;;;;;4213672;28;20452;-53
2023/09/25 01:11:11;;;;;;;7.88;2.70;;;15.40;97.10;;;;;;4231975;28;20120;-52
2023/09/25 01:13:15;;;;;;;8.60;3.10;;;15.40;97.30;;;;;;4232486;28;20044;-52
2023/09/25 01:15:17;;;;;;;4.15;2.50;;;15.40;97.20;;;;;;4232024;28;20059;-51
2023/09/25 01:17:19;;;;;;;8.63;3.58;;;15.40;97.10;;;;;;4223060;28;20055;-51
2023/09/25 01:19:22;;;;;;;4.32;2.63;;;15.40;97.00;;;;;;4231757;28;20054;-52
2023/09/25 01:21:25;;;;;;;4.03;2.80;;;15.40;97.00;;;;;;4231370;28;20078;-53
2023/09/25 01:23:29;;;;;;;4.40;2.80;;;15.40;97.00;;;;;;4231704;28;20074;-54
2023/09/25 01:25:31;;;;;;;3.95;2.60;;;15.40;97.10;;;;;;4231350;28;20040;-53
2023/09/25 01:27:33;;;;;;;4.85;2.50;;;15.40;96.90;;;;;;4230422;28;20044;-52
2023/09/25 01:29:35;;;;;;;6.50;2.63;;;15.40;96.90;;;;;;4231890;28;20051;-53
2023/09/25 01:31:37;;;;;;;4.10;2.90;;;15.50;97.10;;;;;;4231429;28;20421;-53
2023/09/25 01:33:39;;;;;;;5.97;2.80;;;15.40;97.00;;;;;;4231589;28;20097;-54
2023/09/25 01:35:42;;;;;;;4.53;2.85;;;15.40;96.80;;;;;;4232972;28;20043;-53
2023/09/25 01:37:44;;;;;;;4.57;2.38;;;15.40;97.00;;;;;;4232811;28;20067;-56
2023/09/25 01:39:48;;;;;;;4.68;2.70;;;15.40;96.90;;;;;;4232968;28;20400;-53
2023/09/25 01:41:50;;;;;;;3.92;2.40;;;15.40;97.00;;;;;;4231540;28;20527;-53
2023/09/25 01:43:52;;;;;;;5.03;2.65;;;15.40;97.00;;;;;;4213379;28;20075;-54
2023/09/25 01:45:54;;;;;;;4.60;2.58;;;15.40;96.90;;;;;;4231279;28;20527;-53
2023/09/25 01:47:57;;;;;;;4.15;2.50;;;15.30;96.90;;;;;;4230734;28;20095;-52
2023/09/25 01:49:59;;;;;;;5.40;2.95;;;15.30;97.30;;;;;;4230946;28;20082;-52
2023/09/25 01:52:07;;;;;;;4.68;3.00;;;15.40;97.30;;;;;;4231022;28;20203;-51
2023/09/25 01:54:09;;;;;;;4.13;2.75;;;15.30;97.10;;;;;;4230999;28;20048;-51
2023/09/25 01:56:14;;;;;;;4.50;2.65;;;15.30;97.20;;;;;;4231119;28;20151;-52
2023/09/25 01:58:16;;;;;;;6.63;3.33;;;15.30;97.40;;;;;;4231013;28;20119;-51
2023/09/25 02:00:18;;;;;;;3.88;2.67;;;15.30;97.00;;;;;;4230904;28;20461;-53
2023/09/25 02:02:21;;;;;;;5.45;2.80;;;15.30;97.20;;;;;;4230590;28;20057;-53
2023/09/25 02:04:23;;;;;;;6.50;2.90;;;15.20;97.10;;;;;;4230885;28;20092;-54
2023/09/25 02:06:26;;;;;;;5.80;2.85;;;15.20;97.30;;;;;;4212778;28;20453;-53
2023/09/25 02:08:29;;;;;;;7.07;2.70;;;15.20;97.10;;;;;;4212792;28;20378;-54
2023/09/25 02:10:35;;;;;;;4.72;2.70;;;15.20;97.30;;;;;;4230626;28;20169;-53
2023/09/25 02:12:38;;;;;;;3.97;2.63;;;15.10;97.20;;;;;;4212715;28;20055;-53
2023/09/25 02:14:40;;;;;;;4.80;2.70;;;15.10;97.40;;;;;;4230836;28;20078;-53
2023/09/25 02:16:42;;;;;;;5.03;2.50;;;15.10;97.50;;;;;;4234923;27;20035;-53
2023/09/25 02:18:45;;;;;;;4.43;2.60;;;15.10;97.20;;;;;;4248028;27;20069;-53
2023/09/25 02:20:47;;;;;;;4.13;2.58;;;15.00;97.40;;;;;;4229297;28;20043;-53
2023/09/25 02:22:51;;;;;;;5.57;2.55;;;15.00;97.60;;;;;;4229768;28;20044;-52
2023/09/25 02:24:53;;;;;;;4.83;2.80;;;15.00;97.70;;;;;;4248155;27;20035;-51
2023/09/25 02:26:55;;;;;;;4.55;2.65;;;15.00;97.90;;;;;;4247808;27;20443;-51
2023/09/25 02:28:59;;;;;;;9.75;2.55;;;15.00;98.20;;;;;;4247875;27;20047;-52
2023/09/25 02:31:01;;;;;;;6.78;2.88;;;15.00;98.10;;;;;;4247714;27;20047;-51
2023/09/25 02:33:04;;;;;;;6.90;2.88;;;15.00;98.10;;;;;;4248043;27;20068;-51
2023/09/25 02:35:08;;;;;;;4.10;2.30;;;15.00;98.00;;;;;;4247370;27;20051;-51
2023/09/25 02:37:10;;;;;;;6.03;2.85;;;14.90;97.90;;;;;;4247398;28;20051;-51
2023/09/25 02:39:15;;;;;;;3.55;2.20;;;14.90;98.00;;;;;;4247586;28;20409;-53
2023/09/25 02:41:17;;;;;;;6.07;2.78;;;14.90;98.00;;;;;;4247272;28;20043;-53
2023/09/25 02:43:19;;;;;;;5.80;2.88;;;14.80;98.10;;;;;;4247638;28;20096;-53
2023/09/25 02:45:23;;;;;;;8.13;2.72;;;14.80;98.20;;;;;;4229022;28;20048;-53
2023/09/25 02:47:25;;;;;;;5.38;2.70;;;14.80;98.60;;;;;;4247244;28;20043;-54
2023/09/25 02:49:27;;;;;;;5.32;2.90;;;14.70;98.30;;;;;;4228793;28;20054;-54
2023/09/25 02:51:29;;;;;;;3.95;2.20;;;14.70;98.20;;;;;;4230466;28;20119;-54
2023/09/25 02:53:31;;;;;;;5.95;2.83;;;14.70;98.40;;;;;;4230530;28;20201;-54
2023/09/25 02:55:34;;;;;;;5.75;2.70;;;14.70;98.20;;;;;;4230484;28;20040;-54
2023/09/25 02:57:36;;;;;;;4.68;2.40;;;14.70;98.30;;;;;;4230131;28;20048;-53
2023/09/25 02:59:38;;;;;;;7.70;2.60;;;14.70;98.40;;;;;;4232293;28;20053;-52
2023/09/25 03:01:42;;;;;;;6.47;2.60;;;14.70;98.40;;;;;;4233598;28;20047;-53
2023/09/25 03:03:44;;;;;;;3.92;2.42;;;14.70;98.80;;;;;;4233828;28;20046;-54
2023/09/25 03:05:47;;;;;;;8.23;3.17;;;14.80;98.80;;;;;;4233711;28;20096;-53
2023/09/25 03:07:49;;;;;;;4.63;2.70;;;14.70;98.40;;;;;;4234036;28;20056;-54
2023/09/25 03:09:51;;;;;;;4.13;2.80;;;14.70;98.60;;;;;;4233468;28;20052;-53
2023/09/25 03:11:53;;;;;;;6.65;2.90;;;14.70;98.60;;;;;;4233843;28;20048;-51
2023/09/25 03:13:56;;;;;;;3.47;2.45;;;14.70;98.70;;;;;;4233541;28;20485;-51
2023/09/25 03:15:58;;;;;;;4.72;3.05;;;14.70;98.80;;;;;;4233509;28;20040;-51
2023/09/25 03:18:01;;;;;;;3.65;2.70;;;14.70;98.70;;;;;;4233514;28;20182;-54
2023/09/25 03:20:12;;;;;;;8.52;2.80;;;14.70;98.70;;;;;;4233476;28;20053;-53
2023/09/25 03:22:14;;;;;;;3.78;2.40;;;14.70;98.60;;;;;;4233668;28;20055;-54
2023/09/25 03:24:16;;;;;;;5.75;2.70;;;14.70;98.80;;;;;;4234004;27;20052;-53
2023/09/25 03:26:20;;;;;;;4.45;2.70;;;14.60;98.70;;;;;;4233636;28;20047;-53
2023/09/25 03:28:22;;;;;;;4.65;2.97;;;14.60;98.80;;;;;;4233171;28;20071;-53
2023/09/25 03:30:24;;;;;;;5.40;3.25;;;14.60;98.80;;;;;;4233540;28;20048;-55
2023/09/25 03:32:26;;;;;;;8.30;2.65;;;14.60;98.90;;;;;;4233470;28;20094;-53
2023/09/25 03:34:30;;;;;;;5.63;2.70;;;14.60;98.90;;;;;;4233317;28;20550;-54
2023/09/25 03:36:32;;;;;;;3.38;2.60;;;14.60;98.70;;;;;;4233394;28;20073;-54
2023/09/25 03:38:36;;;;;;;6.22;3.05;;;14.60;98.90;;;;;;4233476;27;20086;-54
2023/09/25 03:40:38;;;;;;;4.28;2.88;;;14.50;98.90;;;;;;4233425;28;20044;-53
2023/09/25 03:42:41;;;;;;;7.45;3.08;;;14.50;98.80;;;;;;4232776;28;20114;-53
2023/09/25 03:44:43;;;;;;;4.78;2.70;;;14.50;99.10;;;;;;4233336;28;20050;-53
2023/09/25 03:46:45;;;;;;;6.93;3.10;;;14.50;99.20;;;;;;4233364;28;20420;-51
2023/09/25 03:48:47;;;;;;;5.63;2.67;;;14.50;99.00;;;;;;4233504;28;20397;-50
2023/09/25 03:50:52;;;;;;;4.38;2.95;;;14.50;99.10;;;;;;4248198;27;20077;-52
2023/09/25 03:52:58;;;;;;;5.75;3.00;;;14.50;99.30;;;;;;4250553;27;20462;-51
2023/09/25 03:55:00;;;;;;;5.50;2.83;;;14.50;99.10;;;;;;4250287;27;20067;-51
2023/09/25 03:57:02;;;;;;;4.82;2.97;;;14.50;99.10;;;;;;4252193;27;20074;-52
2023/09/25 03:59:05;;;;;;;6.45;3.25;;;14.50;99.10;;;;;;4251740;27;20186;-53
2023/09/25 04:01:07;;;;;;;4.03;2.85;;;14.50;99.20;;;;;;4250152;27;20039;-53
2023/09/25 04:03:09;;;;;;;4.55;2.72;;;14.50;99.00;;;;;;4249955;27;20481;-53
2023/09/25 04:05:12;;;;;;;5.95;3.40;;;14.50;99.30;;;;;;4249787;27;20100;-54
2023/09/25 04:07:16;;;;;;;8.20;3.03;;;14.50;99.20;;;;;;4249930;27;20072;-54
2023/09/25 04:09:20;;;;;;;7.18;3.92;;;14.50;99.30;;;;;;4249546;27;20491;-54
2023/09/25 04:11:22;;;;;;;6.00;3.20;;;14.50;99.20;;;;;;4249354;27;20116;-54
2023/09/25 04:13:26;;;;;;;4.45;2.30;;;14.40;99.30;;;;;;4249845;27;20046;-54
2023/09/25 04:15:28;;;;;;;3.40;2.23;;;14.40;99.50;;;;;;4249978;27;20043;-54
2023/09/25 04:17:33;;;;;;;5.22;3.15;;;14.40;99.50;;;;;;4249477;27;20805;-54
2023/09/25 04:19:35;;;;;;;4.57;2.35;;;14.40;99.40;;;;;;4249643;27;20063;-54
2023/09/25 04:21:38;;;;;;;4.47;2.72;;;14.40;99.50;;;;;;4249599;27;20050;-54
2023/09/25 04:23:42;;;;;;;6.70;2.85;;;14.30;99.90;;;;;;4249718;27;20047;-54
2023/09/25 04:25:51;;;;;;;8.43;3.33;;;14.30;99.60;;;;;;4249354;27;20124;-54
2023/09/25 04:27:55;;;;;;;4.68;2.47;;;14.40;99.50;;;;;;4249662;27;20142;-53
2023/09/25 04:29:57;;;;;;;4.00;2.90;;;14.40;99.60;;;;;;4249721;27;20151;-54
2023/09/25 04:31:59;;;;;;;5.93;3.22;;;14.40;99.70;;;;;;4231201;28;20051;-54
2023/09/25 04:34:03;;;;;;;4.68;2.67;;;14.40;99.80;;;;;;4249400;27;20062;-54
2023/09/25 04:36:09;;;;;;;4.63;3.15;;;14.40;99.70;;;;;;4249630;27;20051;-53
2023/09/25 04:38:12;;;;;;;3.47;2.47;;;14.40;99.70;;;;;;4249348;27;20077;-54
2023/09/25 04:42:22;;;;;;;3.85;2.70;;;14.30;99.60;;;;;;4249349;27;20039;-53
2023/09/25 04:44:24;;;;;;;4.88;2.72;;;14.30;99.90;;;;;;4249128;27;20100;-54
2023/09/25 04:46:27;;;;;;;4.88;2.78;;;14.30;99.80;;;;;;4249191;27;20062;-54
2023/09/25 04:48:31;;;;;;;4.93;3.03;;;14.30;99.70;;;;;;4249584;27;20065;-54
2023/09/25 04:50:34;;;;;;;7.93;3.42;;;14.30;99.60;;;;;;4249209;27;20132;-54
2023/09/25 04:52:36;;;;;;;7.35;3.33;;;14.30;99.70;;;;;;4249905;27;20049;-53
2023/09/25 04:54:38;;;;;;;5.93;2.83;;;14.20;99.50;;;;;;4251418;27;20047;-53
2023/09/25 04:56:41;;;;;;;4.78;2.88;;;14.20;99.70;;;;;;4251946;27;20051;-51
2023/09/25 04:58:43;;;;;;;7.20;2.90;;;14.30;99.60;;;;;;4252389;27;20097;-53
2023/09/25 05:00:46;;;;;;;7.63;3.30;;;14.30;99.70;;;;;;4234485;28;20043;-56
2023/09/25 05:02:49;;;;;;;5.15;3.00;;;14.30;99.70;;;;;;4252693;27;20071;-54
2023/09/25 05:04:51;;;;;;;6.45;2.83;;;14.30;99.90;;;;;;4253156;27;20051;-57
2023/09/25 05:06:53;;;;;;;5.05;2.65;;;14.30;99.70;;;;;;4252333;27;20075;-54
2023/09/25 05:08:55;;;;;;;6.43;3.25;;;14.30;99.90;;;;;;4252787;27;20055;-54
2023/09/25 05:10:58;;;;;;;4.45;2.60;;;14.30;99.90;;;;;;4251154;27;20466;-55
2023/09/25 05:13:01;;;;;;;6.88;3.20;;;14.20;99.90;;;;;;4252462;27;20500;-51
2023/09/25 05:15:07;;;;;;;6.88;3.30;;;14.20;99.90;;;;;;4252533;27;20069;-51
2023/09/25 05:17:09;;;;;;;7.60;3.55;;;14.10;99.90;;;;;;4242896;27;20126;-53
2023/09/25 05:19:11;;;;;;;5.05;2.70;;;14.10;99.90;;;;;;4235254;28;20053;-59
2023/09/25 05:21:13;;;;;;;5.47;3.03;;;14.20;99.90;;;;;;4235415;28;20044;-53
2023/09/25 05:23:18;;;;;;;5.97;3.20;;;14.10;99.90;;;;;;4234919;28;20048;-54
2023/09/25 05:25:22;;;;;;;6.78;2.97;;;14.20;99.90;;;;;;4216741;28;20182;-53
2023/09/25 05:27:24;;;;;;;5.13;2.95;;;14.20;99.90;;;;;;4235091;28;20052;-52
2023/09/25 05:29:28;;;;;;;5.88;3.17;;;14.10;99.90;;;;;;4234697;28;20396;-59
2023/09/25 05:31:30;;;;;;;4.90;2.60;;;14.10;99.90;;;;;;4234293;28;20071;-54
2023/09/25 05:33:33;;;;;;;5.75;2.90;;;14.10;99.90;;;;;;4233281;28;20044;-53
2023/09/25 05:35:36;;;;;;;8.23;2.97;;;14.00;99.90;;;;;;4232061;28;20043;-51
2023/09/25 05:37:39;;;;;;;5.10;2.78;;;14.00;99.90;;;;;;4231374;28;20104;-53
2023/09/25 05:39:41;;;;;;;6.20;3.30;;;14.00;99.90;;;;;;4231126;28;20515;-51
2023/09/25 05:41:43;;;;;;;6.45;3.47;;;14.10;99.90;;;;;;4232093;28;20039;-51
2023/09/25 05:43:45;;;;;;;5.82;3.35;;;14.10;99.90;;;;;;4232198;28;20416;-51
2023/09/25 05:45:49;;;;;;;5.63;3.38;;;14.10;99.90;;;;;;4231531;28;20100;-51
2023/09/25 05:47:51;;;;;;;6.15;3.47;;;14.10;99.90;;;;;;4231325;28;20401;-51
2023/09/25 05:49:53;;;;;;;9.55;3.20;;;14.10;99.90;;;;;;4231378;28;20127;-51
2023/09/25 05:51:55;;;;;;;8.95;3.67;;;14.10;99.90;;;;;;4231243;28;20490;-51
2023/09/25 05:53:58;;;;;;;7.53;3.42;;;14.10;99.90;;;;;;4230899;28;20054;-51
2023/09/25 05:56:00;;;;;;;5.85;2.80;;;14.10;99.90;;;;;;4230901;28;20485;-52
2023/09/25 05:58:07;;;;;;;5.35;2.92;;;14.10;99.90;;;;;;4231008;28;20126;-52
2023/09/25 06:00:16;;;;;;;4.75;3.13;;;14.10;99.90;;;;;;4230763;28;20122;-52
2023/09/25 06:02:20;;;;;;;8.30;3.00;;;14.10;99.90;;;;;;4231159;28;20096;-51
2023/09/25 06:04:29;;;;;;;7.55;3.30;;;14.20;99.90;;;;;;4231022;28;20051;-52
2023/09/25 06:06:33;;;;;;;5.63;2.97;;;14.20;99.90;;;;;;4230861;28;20067;-52
2023/09/25 06:08:35;;;;;;;11.40;3.17;;;14.20;99.90;;;;;;4230468;28;20478;-52
2023/09/25 06:10:37;;;;;;;8.23;3.75;;;14.20;99.90;;;;;;4231065;28;20047;-52
2023/09/25 06:12:39;;;;;;;5.13;3.20;;;14.20;99.90;;;;;;4212764;28;20536;-50
2023/09/25 06:14:42;;;;;;;5.10;3.08;;;14.20;99.90;;;;;;4230573;28;20118;-51
2023/09/25 06:16:47;;;;;;;6.70;3.20;;;14.20;99.90;;;;;;4230617;28;20417;-51
2023/09/25 06:18:51;;;;;;;8.05;3.53;;;14.30;99.90;;;;;;4230789;28;20320;-52
2023/09/25 06:20:53;;;;;;;9.40;3.75;;;14.40;99.90;;;;;;4230557;28;20093;-51
2023/09/25 06:22:55;;;;;;;7.10;3.00;;;14.40;99.90;;;;;;4230552;28;20482;-53
2023/09/25 06:24:58;;;;;;;6.90;3.35;;;14.40;99.70;;;;;;4230746;28;20066;-53
2023/09/25 06:27:00;;;;;;;9.45;3.88;;;14.50;99.80;;;;;;4230596;28;20047;-54
2023/09/25 06:29:03;;;;;;;8.93;3.65;;;14.40;99.60;;;;;;4230807;28;20055;-53
2023/09/25 06:31:05;;;;;;;8.02;3.20;;;14.40;99.60;;;;;;4230518;28;20056;-52
2023/09/25 06:33:07;;;;;;;7.00;3.35;;;14.40;99.50;;;;;;4230666;28;20063;-51
2023/09/25 06:35:11;;;;;;;6.80;3.05;;;14.40;99.50;;;;;;4230561;28;20047;-52
2023/09/25 06:37:13;;;;;;;7.35;3.13;;;14.40;99.70;;;;;;4230207;28;20071;-54
2023/09/25 06:39:15;;;;;;;6.75;3.63;;;14.50;99.80;;;;;;4230365;28;20051;-53
2023/09/25 06:41:17;;;;;;;10.23;3.55;;;14.50;99.70;;;;;;4230475;28;20057;-53
2023/09/25 06:43:19;;;;;;;7.10;3.30;;;14.50;99.50;;;;;;4230607;28;20054;-52
2023/09/25 06:45:22;;;;;;;10.52;3.83;;;14.50;99.90;;;;;;4230321;28;20451;-53
2023/09/25 06:47:24;;;;;;;12.15;4.38;;;14.60;99.40;;;;;;4230427;28;20048;-52
2023/09/25 06:49:28;;;;;;;9.90;3.50;;;14.60;99.40;;;;;;4230658;28;20548;-54
2023/09/25 06:51:31;;;;;;;5.45;3.15;;;14.60;99.10;;;;;;4212193;28;20075;-54
2023/09/25 06:53:33;;;;;;;11.75;3.50;;;14.70;99.40;;;;;;4230437;28;20039;-54
2023/09/25 06:55:39;;;;;;;9.85;3.80;;;14.60;99.00;;;;;;4230315;28;20068;-53
2023/09/25 06:57:41;;;;;;;;;;;14.70;98.90;;;;;;4230955;28;20127;-53
2023/09/25 06:59:43;;;;;;;11.13;4.45;;;14.70;99.00;;;;;;4230566;28;19920;-54
2023/09/25 07:01:45;;;;;;;13.75;3.88;;;14.70;99.10;;;;;;4230730;28;20044;-54
2023/09/25 07:03:48;;;;;;;10.13;3.88;;;14.70;98.80;;;;;;4230462;28;20400;-54
2023/09/25 07:05:55;;;;;;;7.80;3.13;;;14.90;98.90;;;;;;4230095;28;20071;-54
2023/09/25 07:08:00;;;;;;;9.48;2.92;;;14.90;98.50;;;;;;4230409;28;20044;-53
2023/09/25 07:10:03;;;;;;;9.23;3.22;;;15.00;98.30;;;;;;4230440;28;20043;-53
2023/09/25 07:12:06;;;;;;;8.27;3.60;;;15.10;98.40;;;;;;4230411;28;20075;-53
2023/09/25 07:14:08;;;;;;;9.48;3.78;;;15.30;98.20;;;;;;4230227;28;20050;-53
2023/09/25 07:16:10;;;;;;;9.13;3.65;;;15.40;98.10;;;;;;4230233;28;20055;-53
2023/09/25 07:18:13;;;;;;;8.18;3.47;;;15.60;98.00;;;;;;4230203;28;20132;-53
2023/09/25 07:20:16;;;;;;;8.25;4.47;;;15.80;97.80;;;;;;4229768;28;20047;-54
2023/09/25 07:22:18;;;;;;;12.27;4.38;;;15.90;97.10;;;;;;4230276;28;20065;-53
2023/09/25 07:24:21;;;;;;;9.93;3.92;;;16.10;96.90;;;;;;4212241;28;20048;-54
2023/09/25 07:26:24;;;;;;;10.15;3.65;;;16.20;96.60;;;;;;4230049;28;20122;-52
2023/09/25 07:28:27;;;;;;;12.00;3.85;;;16.40;96.50;;;;;;4229994;28;20405;-52
2023/09/25 07:30:29;;;;;;;8.98;3.78;;;16.40;95.80;;;;;;4230501;28;20386;-52
2023/09/25 07:32:32;;;;;;;9.98;4.07;;;16.50;95.90;;;;;;4230290;28;20134;-52
2023/09/25 07:34:39;;;;;;;7.70;4.03;;;16.60;96.10;;;;;;4229766;28;20079;-52
2023/09/25 07:36:46;;;;;;;9.10;3.70;;;16.60;95.60;;;;;;4231302;28;20084;-53
2023/09/25 07:38:49;;;;;;;5.85;3.70;;;16.70;95.60;;;;;;4231376;28;20051;-57
2023/09/25 07:40:53;;;;;;;13.77;4.45;;;16.70;95.70;;;;;;4230893;28;20055;-52
2023/09/25 07:43:03;;;;;;;10.25;4.13;;;16.70;95.40;;;;;;4230311;28;20048;-52
2023/09/25 07:45:09;;;;;;;15.88;4.07;;;16.70;95.40;;;;;;4231486;28;20481;-51
2023/09/25 07:47:12;;;;;;;16.05;4.00;;;16.60;95.50;;;;;;4233165;28;20047;-52
2023/09/25 07:49:15;;;;;;;16.40;4.57;;;16.60;95.50;;;;;;4232727;28;20047;-52
2023/09/25 07:51:17;;;;;;;10.32;4.18;;;16.60;95.60;;;;;;4233490;28;20051;-51
2023/09/25 07:53:19;;;;;;;8.52;3.72;;;16.60;95.80;;;;;;4233324;28;20132;-51
2023/09/25 07:55:22;;;;;;;6.65;4.03;;;16.60;95.60;;;;;;4233431;28;20122;-54
2023/09/25 07:57:25;;;;;;;13.48;3.78;;;16.70;96.00;;;;;;4234447;28;20461;-52
2023/09/25 07:59:28;;;;;;;10.52;4.05;;;16.70;96.30;;;;;;4234290;28;20051;-51
2023/09/25 08:01:30;;;;;;;11.10;3.58;;;16.70;96.10;;;;;;4234381;28;20480;-52
2023/09/25 08:03:32;;;;;;;10.45;4.47;;;16.70;95.90;;;;;;4234333;28;20047;-56
2023/09/25 08:05:36;;;;;;;10.50;4.03;;;16.70;96.10;;;;;;4233505;28;20048;-51
2023/09/25 08:07:39;;;;;;;12.82;4.43;;;16.80;96.40;;;;;;4232765;28;20040;-54
2023/09/25 08:09:42;;;;;;;9.57;3.95;;;16.80;95.50;;;;;;4233018;28;20047;-53
2023/09/25 08:11:45;;;;;;;9.35;4.55;;;16.80;95.90;;;;;;4233125;28;20122;-53
2023/09/25 08:13:49;;;;;;;10.50;4.70;;;16.90;95.90;;;;;;4232854;28;20047;-53
2023/09/25 08:15:51;;;;;;;15.00;4.40;;;17.00;96.10;;;;;;4232932;28;20318;-53
2023/09/25 08:17:53;;;;;;;14.50;4.38;;;17.10;95.70;;;;;;4232768;28;20119;-54
2023/09/25 08:19:56;;;;;;;8.77;4.57;;;17.20;95.60;;;;;;4232501;28;20085;-54
2023/09/25 08:21:58;;;;;;;9.85;4.10;;;17.20;95.60;;;;;;4232977;28;20055;-52
2023/09/25 08:24:00;;;;;;;11.05;3.75;;;17.30;95.50;;;;;;4232522;28;20040;-54
2023/09/25 08:26:05;;;;;;;11.93;4.85;;;17.50;95.20;;;;;;4232715;28;20079;-54
2023/09/25 08:28:07;;;;;;;11.75;4.18;;;17.40;94.50;;;;;;4232618;28;20464;-52
2023/09/25 08:30:13;;;;;;;14.00;4.65;;;17.50;94.70;;;;;;4232560;28;20059;-52
2023/09/25 08:32:15;;;;;;;15.80;5.40;;;17.50;94.60;;;;;;4232072;28;20044;-51
2023/09/25 08:34:17;;;;;;;10.85;4.03;;;17.50;94.30;;;;;;4232547;28;20048;-52
2023/09/25 08:36:19;;;;;;;14.07;4.82;;;17.60;94.30;;;;;;4232142;28;20143;-52
2023/09/25 08:38:22;;;;;;;16.95;4.32;;;17.70;94.70;;;;;;4232135;28;20108;-52
2023/09/25 08:40:24;;;;;;;9.77;4.55;;;17.80;94.80;;;;;;4232371;28;20104;-52
2023/09/25 08:42:28;;;;;;;15.43;4.45;;;17.80;94.60;;;;;;4232280;28;20044;-53
2023/09/25 08:44:30;;;;;;;12.98;4.88;;;18.00;94.50;;;;;;4232392;28;20044;-54
2023/09/25 08:46:34;;;;;;;17.20;4.78;;;18.10;94.50;;;;;;4231587;28;20058;-53
2023/09/25 08:48:36;;;;;;;10.55;3.92;;;18.00;93.80;;;;;;4232135;28;20126;-53
2023/09/25 08:50:40;;;;;;;14.93;4.78;;;18.10;94.10;;;;;;4231249;28;20128;-57
2023/09/25 08:52:42;;;;;;;17.75;4.72;;;18.10;94.00;;;;;;4232023;28;20489;-53
2023/09/25 08:54:46;;;;;;;9.02;4.35;;;18.20;94.10;;;;;;4232104;28;20048;-53
2023/09/25 08:56:49;;;;;;;16.27;4.57;;;18.30;94.10;;;;;;4230872;28;20073;-51
2023/09/25 08:58:52;;;;;;;14.65;4.70;;;18.40;93.90;;;;;;4231708;28;20205;-51
2023/09/25 09:00:58;;;;;;;12.70;4.72;;;18.40;93.90;;;;;;4231882;28;20058;-52
2023/09/25 09:03:02;;;;;;;18.45;5.43;;;18.40;93.50;;;;;;4232105;28;20499;-51
2023/09/25 09:05:05;;;;;;;14.15;4.95;;;18.40;93.50;;;;;;4231774;28;20062;-52
2023/09/25 09:07:09;;;;;;;12.27;4.57;;;18.50;93.80;;;;;;4231817;28;20447;-51
2023/09/25 09:09:12;;;;;;;11.82;4.65;;;18.50;93.70;;;;;;4232074;28;20075;-51
2023/09/25 09:11:15;;;;;;;16.08;5.22;;;18.50;93.30;;;;;;4231825;28;20047;-51
2023/09/25 09:13:22;;;;;;;14.23;4.82;;;18.60;93.40;;;;;;4231775;28;20101;-52
2023/09/25 09:15:26;;;;;;;11.75;4.82;;;18.70;93.50;;;;;;4231474;28;20074;-51
2023/09/25 09:17:29;;;;;;;9.35;4.40;;;18.70;93.50;;;;;;4231308;28;20051;-51
2023/09/25 09:19:50;;;;;;;17.35;5.07;;;18.60;93.50;;;;;;4231433;28;20078;-52
2023/09/25 09:22:03;;;;;;;12.90;4.95;;;18.70;93.40;;;;;;4232239;28;20461;-51
2023/09/25 09:24:08;;;;;;;14.30;5.03;;;18.80;93.20;;;;;;4231718;28;20116;-52
2023/09/25 09:26:12;;;;;;;14.32;5.07;;;18.80;93.50;;;;;;4231425;28;20039;-52
2023/09/25 09:28:14;;;;;;;14.65;5.00;;;18.80;93.20;;;;;;4231615;28;20118;-54
2023/09/25 09:30:21;;;;;;;12.10;4.72;;;18.90;93.30;;;;;;4231079;28;20052;-54
2023/09/25 09:32:26;;;;;;;13.68;4.90;;;18.90;93.30;;;;;;4231501;28;20103;-54
2023/09/25 09:34:28;;;;;;;11.98;4.65;;;19.00;93.00;;;;;;4231395;28;20160;-53
2023/09/25 09:36:32;;;;;;;12.00;4.70;;;19.00;92.70;;;;;;4231375;28;20125;-54
2023/09/25 09:38:36;;;;;;;12.95;5.00;;;19.10;92.90;;;;;;4231223;28;20043;-54
2023/09/25 09:40:39;;;;;;;13.65;5.32;;;19.20;92.90;;;;;;4231231;28;20104;-55
2023/09/25 09:42:43;;;;;;;9.75;5.15;;;19.30;93.10;;;;;;4231186;28;20495;-55
2023/09/25 09:44:45;;;;;;;13.38;5.07;;;19.20;92.80;;;;;;4231019;28;20073;-54
2023/09/25 09:46:50;;;;;;;13.15;5.20;;;19.20;93.10;;;;;;4231151;28;20097;-51
2023/09/25 09:48:53;;;;;;;;;;;19.30;92.80;;;;;;4213659;28;20043;-51
2023/09/25 09:50:59;;;;;;;13.88;5.20;;;19.30;92.80;;;;;;4230872;28;19920;-51
2023/09/25 09:53:05;;;;;;;9.43;4.82;;;19.30;93.00;;;;;;4231133;28;20039;-52
2023/09/25 09:55:08;;;;;;;16.45;5.10;;;19.40;93.30;;;;;;4231038;28;20051;-52
2023/09/25 09:57:12;;;;;;;14.48;5.57;;;19.40;92.80;;;;;;4231139;28;20063;-51
2023/09/25 09:59:14;;;;;;;10.73;4.70;;;19.50;92.80;;;;;;4230652;28;20044;-52
2023/09/25 10:01:17;;;;;;;13.88;5.13;;;19.60;92.60;;;;;;4230993;28;20094;-52
2023/09/25 10:03:20;;;;;;;15.05;5.85;;;19.50;92.30;;;;;;4230959;28;20043;-52
2023/09/25 10:05:23;;;;;;;20.17;6.38;;;19.50;92.30;;;;;;4230863;28;20478;-54
2023/09/25 10:07:26;;;;;;;14.55;4.60;;;19.50;92.60;;;;;;4231258;28;20050;-52
2023/09/25 10:09:31;;;;;;;17.63;6.38;;;19.60;92.70;;;;;;4231327;28;20124;-51
2023/09/25 10:11:33;;;;;;;;;;;19.60;92.70;;;;;;4231482;28;20043;-53
2023/09/25 10:13:37;;;;;;;14.90;5.25;;;19.50;92.70;;;;;;4230307;28;19919;-51
2023/09/25 10:15:39;;;;;;;12.98;4.65;;;19.50;92.90;;;;;;4230721;28;20054;-51
2023/09/25 10:17:45;;;;;;;16.90;5.53;;;19.60;92.70;;;;;;4230706;28;20074;-51
2023/09/25 10:19:52;;;;;;;14.20;6.18;;;19.70;92.50;;;;;;4230535;28;20405;-53
2023/09/25 10:22:08;;;;;;;16.83;5.00;;;19.80;92.50;;;;;;4230764;28;20464;-52
2023/09/25 10:24:24;;;;;;;21.17;5.28;;;19.80;92.60;;;;;;4230753;28;20046;-52
2023/09/25 10:26:33;;;;;;;15.07;5.22;;;19.90;92.50;;;;;;4230736;28;20104;-52
2023/09/25 10:28:38;;;;;;;10.70;4.57;;;19.80;92.40;;;;;;4230521;28;20428;-52
2023/09/25 10:30:41;;;;;;;12.25;4.35;;;19.90;92.60;;;;;;4230493;28;20047;-51
2023/09/25 10:32:51;;;;;;;14.98;4.65;;;19.90;92.60;;;;;;4230666;28;20123;-51
2023/09/25 10:34:53;;;;;;;16.23;4.53;;;19.80;92.20;;;;;;4230632;28;20542;-54
2023/09/25 10:36:59;;;;;;;11.00;4.03;;;19.90;92.50;;;;;;4230566;28;20460;-54
2023/09/25 10:39:04;;;;;;;11.85;4.45;;;19.90;92.40;;;;;;4212388;28;20048;-54
2023/09/25 10:41:07;;;;;;;12.90;4.25;;;19.90;92.30;;;;;;4230486;28;20047;-53
2023/09/25 10:43:17;;;;;;;13.75;3.78;;;19.90;92.50;;;;;;4230265;28;20047;-52